Time;durP1;ratioP1;P1;durP2;ratioP2;P2;SDS_P1;SDS_P2;PMS_P1;PMS_P2;Temp;Humidity;BMP_temperature;BMP_pressure;BME280_temperature;BME280_humidity;BME280_pressure;Samples;Min_cycle;Max_cycle;Signal;HPM_P1;HPM_P2
2021/04/14 00:02:17;;;;;;;;;;;;;;;;;;5070553;28;19946;-63
2021/04/14 00:04:43;;;;;;;;;;;;;;;;;;5070349;28;19924;-63
2021/04/14 00:07:10;;;;;;;;;;;;;;;;;;5072004;28;20337;-63
2021/04/14 00:09:37;;;;;;;;;;;;;;;;;;5072795;28;19925;-64
2021/04/14 00:12:03;;;;;;;;;;;;;;;;;;5073506;28;19936;-63
2021/04/14 00:14:30;;;;;;;;;;;;;;;;;;5076498;28;20338;-62
2021/04/14 00:16:56;;;;;;;;;;;;;;;;;;5076875;28;19925;-62
2021/04/14 00:19:23;;;;;;;;;;;;;;;;;;5075828;28;20011;-64
2021/04/14 00:21:50;;;;;;;;;;;;;;;;;;5078763;28;19928;-63
2021/04/14 00:24:17;;;;;;;;;;;;;;;;;;5076610;28;20383;-63
2021/04/14 00:26:43;;;;;;;;;;;;;;;;;;5073311;28;19968;-63
2021/04/14 00:29:10;;;;;;;;;;;;;;;;;;5074156;28;19963;-63
2021/04/14 00:31:36;;;;;;;;;;;;;;;;;;5074127;28;19931;-63
2021/04/14 00:34:03;;;;;;;;;;;;;;;;;;5069340;28;19928;-63
2021/04/14 00:36:29;;;;;;;;;;;;;;;;;;5073791;28;19972;-62
2021/04/14 00:38:56;;;;;;;;;;;;;;;;;;5074392;28;19988;-63
2021/04/14 00:41:22;;;;;;;;;;;;;;;;;;5074075;28;20035;-63
2021/04/14 00:43:49;;;;;;;;;;;;;;;;;;5068362;28;19968;-63
2021/04/14 00:46:15;;;;;;;;;;;;;;;;;;5078107;28;19933;-64
2021/04/14 00:48:42;;;;;;;;;;;;;;;;;;5079145;28;19963;-64
2021/04/14 00:51:08;;;;;;;;;;;;;;;;;;5080601;28;19924;-64
2021/04/14 00:53:35;;;;;;;;;;;;;;;;;;5072865;28;19949;-63
2021/04/14 00:56:01;;;;;;;;;;;;;;;;;;5075248;28;20336;-63
2021/04/14 00:58:28;;;;;;;;;;;;;;;;;;5073049;28;19955;-62
2021/04/14 01:00:54;;;;;;;;;;;;;;;;;;5071111;28;19984;-64
2021/04/14 01:03:21;;;;;;;;;;;;;;;;;;5078684;28;19928;-64
2021/04/14 01:05:47;;;;;;;;;;;;;;;;;;5079438;28;19963;-63
2021/04/14 01:08:14;;;;;;;;;;;;;;;;;;5079886;28;19956;-63
2021/04/14 01:10:40;;;;;;;;;;;;;;;;;;5069651;28;19940;-64
2021/04/14 01:13:07;;;;;;;;;;;;;;;;;;5073125;28;20008;-63
2021/04/14 01:15:33;;;;;;;;;;;;;;;;;;5068265;28;20421;-65
2021/04/14 01:18:00;;;;;;;;;;;;;;;;;;5071445;28;19998;-63
2021/04/14 01:20:26;;;;;;;;;;;;;;;;;;5066457;28;19933;-64
2021/04/14 01:22:53;;;;;;;;;;;;;;;;;;5066049;28;19924;-64
2021/04/14 01:25:19;;;;;;;;;;;;;;;;;;5073817;28;19977;-64
2021/04/14 01:27:46;;;;;;;;;;;;;;;;;;5073723;28;20331;-63
2021/04/14 01:30:12;;;;;;;;;;;;;;;;;;5073431;28;19933;-64
2021/04/14 01:32:39;;;;;;;;;;;;;;;;;;5071807;28;20350;-63
2021/04/14 01:35:05;;;;;;;;;;;;;;;;;;5069462;28;20011;-64
2021/04/14 01:37:32;;;;;;;;;;;;;;;;;;5065482;28;20019;-64
2021/04/14 01:39:58;;;;;;;;;;;;;;;;;;5074637;28;19988;-63
2021/04/14 01:42:25;;;;;;;;;;;;;;;;;;5073293;28;19931;-63
2021/04/14 01:44:51;;;;;;;;;;;;;;;;;;5074216;28;19932;-63
2021/04/14 01:47:18;;;;;;;;;;;;;;;;;;5073481;28;20016;-64
2021/04/14 01:49:45;;;;;;;;;;;;;;;;;;5074007;28;20338;-64
2021/04/14 01:52:11;;;;;;;;;;;;;;;;;;5075200;28;19932;-64
2021/04/14 01:54:38;;;;;;;;;;;;;;;;;;5072575;28;19924;-64
2021/04/14 01:57:04;;;;;;;;;;;;;;;;;;5076226;28;20062;-63
2021/04/14 01:59:31;;;;;;;;;;;;;;;;;;5075495;28;20018;-63
2021/04/14 02:01:57;;;;;;;;;;;;;;;;;;5077659;28;20011;-66
2021/04/14 02:04:24;;;;;;;;;;;;;;;;;;5074902;28;19924;-62
2021/04/14 02:06:50;;;;;;;;;;;;;;;;;;5076249;28;19971;-63
2021/04/14 02:09:18;;;;;;;;;;;;;;;;;;5075655;28;19969;-64
2021/04/14 02:11:44;;;;;;;;;;;;;;;;;;5077092;28;19925;-64
2021/04/14 02:14:11;;;;;;;;;;;;;;;;;;5074890;28;20404;-64
2021/04/14 02:16:38;;;;;;;;;;;;;;;;;;5072344;28;20342;-64
2021/04/14 02:19:05;;;;;;;;;;;;;;;;;;5074427;28;19944;-64
2021/04/14 02:21:31;;;;;;;;;;;;;;;;;;5075529;28;20422;-64
2021/04/14 02:23:58;;;;;;;;;;;;;;;;;;5074502;28;19932;-64
2021/04/14 02:26:24;;;;;;;;;;;;;;;;;;5070930;28;19978;-63
2021/04/14 02:28:51;;;;;;;;;;;;;;;;;;5071778;28;19932;-62
2021/04/14 02:31:17;;;;;;;;;;;;;;;;;;5063118;28;19925;-62
2021/04/14 02:33:44;;;;;;;;;;;;;;;;;;5075761;28;20396;-63
2021/04/14 02:36:10;;;;;;;;;;;;;;;;;;5073130;28;19924;-65
2021/04/14 02:38:37;;;;;;;;;;;;;;;;;;5068237;28;19931;-63
2021/04/14 02:41:03;;;;;;;;;;;;;;;;;;5075758;28;20019;-63
2021/04/14 02:43:30;;;;;;;;;;;;;;;;;;5075270;28;20029;-63
2021/04/14 02:45:56;;;;;;;;;;;;;;;;;;5073081;28;20051;-67
2021/04/14 02:48:23;;;;;;;;;;;;;;;;;;5071923;28;19982;-63
2021/04/14 02:50:49;;;;;;;;;;;;;;;;;;5075042;28;19964;-63
2021/04/14 02:53:16;;;;;;;;;;;;;;;;;;5073455;28;19931;-65
2021/04/14 02:55:42;;;;;;;;;;;;;;;;;;5073925;28;19928;-63
2021/04/14 02:58:09;;;;;;;;;;;;;;;;;;5074792;28;19971;-63
2021/04/14 03:00:35;;;;;;;;;;;;;;;;;;5075306;28;20414;-64
2021/04/14 03:03:02;;;;;;;;;;;;;;;;;;5068468;28;19924;-62
2021/04/14 03:05:29;;;;;;;;;;;;;;;;;;5067719;28;19959;-62
2021/04/14 03:07:55;;;;;;;;;;;;;;;;;;5074281;28;19970;-63
2021/04/14 03:10:22;;;;;;;;;;;;;;;;;;5074821;28;20427;-63
2021/04/14 03:12:48;;;;;;;;;;;;;;;;;;5077578;28;20027;-61
2021/04/14 03:15:15;;;;;;;;;;;;;;;;;;5033851;28;1309780;-64
2021/04/14 03:17:41;;;;;;;;;;;;;;;;;;5068751;28;19963;-65
2021/04/14 03:20:08;;;;;;;;;;;;;;;;;;5074448;28;19924;-63
2021/04/14 03:22:34;;;;;;;;;;;;;;;;;;5074813;28;19924;-64
2021/04/14 03:25:01;;;;;;;;;;;;;;;;;;5075981;28;19924;-63
2021/04/14 03:27:27;;;;;;;;;;;;;;;;;;5075120;28;20015;-62
2021/04/14 03:29:54;;;;;;;;;;;;;;;;;;5076017;28;19925;-63
2021/04/14 03:32:21;;;;;;;;;;;;;;;;;;5075087;28;19974;-63
2021/04/14 03:34:47;;;;;;;;;;;;;;;;;;5073726;28;20419;-63
2021/04/14 03:37:14;;;;;;;;;;;;;;;;;;5075360;28;19984;-62
2021/04/14 03:39:40;;;;;;;;;;;;;;;;;;5072653;28;20019;-63
2021/04/14 03:42:07;;;;;;;;;;;;;;;;;;5074128;28;19987;-62
2021/04/14 03:44:37;;;;;;;;;;;;;;;;;;5075354;28;19925;-62
2021/04/14 03:47:03;;;;;;;;;;;;;;;;;;5073740;28;19925;-63
2021/04/14 03:49:30;;;;;;;;;;;;;;;;;;5074557;28;19933;-63
2021/04/14 03:51:56;;;;;;;;;;;;;;;;;;5071058;28;19925;-63
2021/04/14 03:54:23;;;;;;;;;;;;;;;;;;5075749;28;20053;-63
2021/04/14 03:56:50;;;;;;;;;;;;;;;;;;5073650;28;20370;-63
2021/04/14 03:59:16;;;;;;;;;;;;;;;;;;5075299;28;19924;-63
2021/04/14 04:01:43;;;;;;;;;;;;;;;;;;5069425;28;19948;-64
2021/04/14 04:04:09;;;;;;;;;;;;;;;;;;5071070;28;20011;-63
2021/04/14 04:06:36;;;;;;;;;;;;;;;;;;5074884;28;19932;-63
2021/04/14 04:09:02;;;;;;;;;;;;;;;;;;5067701;28;20076;-64
2021/04/14 04:11:29;;;;;;;;;;;;;;;;;;5066880;28;19939;-64
2021/04/14 04:13:57;;;;;;;;;;;;;;;;;;5092068;22;20313;-68
2021/04/14 04:16:23;;;;;;;;;;;;;;;;;;5087398;28;19924;-67
2021/04/14 04:18:50;;;;;;;;;;;;;;;;;;5086754;28;19928;-68
2021/04/14 04:21:16;;;;;;;;;;;;;;;;;;5085290;28;20290;-68
2021/04/14 04:23:42;;;;;;;;;;;;;;;;;;5083594;28;19931;-66
2021/04/14 04:26:09;;;;;;;;;;;;;;;;;;5074025;28;20371;-69
2021/04/14 04:28:36;;;;;;;;;;;;;;;;;;5076626;28;20022;-67
2021/04/14 04:31:02;;;;;;;;;;;;;;;;;;5075800;28;19931;-67
2021/04/14 04:33:29;;;;;;;;;;;;;;;;;;5070932;28;19924;-68
2021/04/14 04:35:55;;;;;;;;;;;;;;;;;;5072313;28;20414;-68
2021/04/14 04:38:22;;;;;;;;;;;;;;;;;;5075711;28;19969;-68
2021/04/14 04:40:48;;;;;;;;;;;;;;;;;;5068572;28;20247;-67
2021/04/14 04:43:14;;;;;;;;;;;;;;;;;;5072095;28;19925;-67
2021/04/14 04:45:41;;;;;;;;;;;;;;;;;;5069600;28;20314;-67
2021/04/14 04:48:07;;;;;;;;;;;;;;;;;;5070290;28;19924;-67
2021/04/14 04:50:34;;;;;;;;;;;;;;;;;;5076490;28;19932;-68
2021/04/14 04:53:00;;;;;;;;;;;;;;;;;;5070040;28;19929;-67
2021/04/14 04:55:27;;;;;;;;;;;;;;;;;;5074503;28;19924;-68
2021/04/14 04:57:53;;;;;;;;;;;;;;;;;;5071961;28;19939;-67
2021/04/14 05:00:20;;;;;;;;;;;;;;;;;;5068427;28;20019;-67
2021/04/14 05:02:46;;;;;;;;;;;;;;;;;;5071392;28;19931;-67
2021/04/14 05:05:13;;;;;;;;;;;;;;;;;;5070747;28;20030;-67
2021/04/14 05:07:39;;;;;;;;;;;;;;;;;;5067076;28;19932;-67
2021/04/14 05:10:06;;;;;;;;;;;;;;;;;;5069170;28;19931;-67
2021/04/14 05:12:32;;;;;;;;;;;;;;;;;;5065106;28;20015;-67
2021/04/14 05:14:59;;;;;;;;;;;;;;;;;;5068732;28;19928;-68
2021/04/14 05:17:25;;;;;;;;;;;;;;;;;;5076269;28;20372;-69
2021/04/14 05:19:52;;;;;;;;;;;;;;;;;;5072802;28;19925;-68
2021/04/14 05:22:18;;;;;;;;;;;;;;;;;;5079486;28;19993;-68
2021/04/14 05:24:45;;;;;;;;;;;;;;;;;;5064225;28;19928;-68
2021/04/14 05:27:11;;;;;;;;;;;;;;;;;;5072905;28;19947;-68
2021/04/14 05:29:38;;;;;;;;;;;;;;;;;;5076625;28;19929;-68
2021/04/14 05:32:04;;;;;;;;;;;;;;;;;;5069904;28;19928;-68
2021/04/14 05:34:31;;;;;;;;;;;;;;;;;;5073600;28;20357;-67
2021/04/14 05:36:57;;;;;;;;;;;;;;;;;;5076309;28;19931;-68
2021/04/14 05:39:24;;;;;;;;;;;;;;;;;;5079574;28;20019;-67
2021/04/14 05:41:50;;;;;;;;;;;;;;;;;;5074262;28;19943;-68
2021/04/14 05:44:17;;;;;;;;;;;;;;;;;;5077781;28;19968;-67
2021/04/14 05:46:43;;;;;;;;;;;;;;;;;;5070466;28;19983;-67
2021/04/14 05:49:10;;;;;;;;;;;;;;;;;;5083424;28;19930;-69
2021/04/14 05:51:36;;;;;;;;;;;;;;;;;;5081907;28;19928;-68
2021/04/14 05:54:03;;;;;;;;;;;;;;;;;;5076294;28;19931;-69
2021/04/14 05:56:29;;;;;;;;;;;;;;;;;;5085772;28;19925;-66
2021/04/14 05:58:56;;;;;;;;;;;;;;;;;;5076842;28;20373;-67
2021/04/14 06:01:22;;;;;;;;;;;;;;;;;;5074536;28;19929;-67
2021/04/14 06:03:49;;;;;;;;;;;;;;;;;;5081201;28;19928;-67
2021/04/14 06:06:17;;;;;;;;;;;;;;;;;;5088431;28;19931;-66
2021/04/14 06:08:44;;;;;;;;;;;;;;;;;;5078493;28;19924;-67
2021/04/14 06:11:10;;;;;;;;;;;;;;;;;;5080563;28;19928;-66
2021/04/14 06:13:37;;;;;;;;;;;;;;;;;;5076625;28;20151;-68
2021/04/14 06:16:04;;;;;;;;;;;;;;;;;;5073595;28;20357;-68
2021/04/14 06:18:31;;;;;;;;;;;;;;;;;;5072557;28;19935;-67
2021/04/14 06:20:58;;;;;;;;;;;;;;;;;;5071338;28;19924;-67
2021/04/14 06:23:24;;;;;;;;;;;;;;;;;;5078598;28;20039;-66
2021/04/14 06:26:10;;;;;;;;;;;;;;;;;;5082969;28;20348;-67
2021/04/14 06:28:37;;;;;;;;;;;;;;;;;;5083353;28;20007;-66
2021/04/14 06:31:03;;;;;;;;;;;;;;;;;;5075042;28;19928;-67
2021/04/14 06:33:33;;;;;;;;;;;;;;;;;;5070410;28;20002;-67
2021/04/14 06:35:59;;;;;;;;;;;;;;;;;;5077020;28;19928;-68
2021/04/14 06:38:28;;;;;;;;;;;;;;;;;;5080030;28;19977;-68
2021/04/14 06:41:17;;;;;;;;;;;;;;;;;;5077218;28;19940;-68
2021/04/14 06:43:45;;;;;;;;;;;;;;;;;;5075716;28;19936;-68
2021/04/14 06:46:12;;;;;;;;;;;;;;;;;;5072727;28;19931;-68
2021/04/14 06:48:39;;;;;;;;;;;;;;;;;;5066362;28;19985;-68
2021/04/14 06:51:05;;;;;;;;;;;;;;;;;;5061818;28;19931;-68
2021/04/14 06:53:31;;;;;;;;;;;;;;;;;;5063624;28;19939;-68
2021/04/14 06:55:58;;;;;;;;;;;;;;;;;;5067644;28;19925;-68
2021/04/14 06:58:24;;;;;;;;;;;;;;;;;;5053550;28;19925;-68
2021/04/14 07:00:51;;;;;;;;;;;;;;;;;;5060874;28;19982;-68
2021/04/14 07:03:17;;;;;;;;;;;;;;;;;;5068185;28;20342;-68
2021/04/14 07:05:44;;;;;;;;;;;;;;;;;;5065169;28;20019;-68
2021/04/14 07:08:10;;;;;;;;;;;;;;;;;;5075249;28;19939;-68
2021/04/14 07:10:39;;;;;;;;;;;;;;;;;;5070143;28;19987;-68
2021/04/14 07:13:05;;;;;;;;;;;;;;;;;;5077545;28;20449;-68
2021/04/14 07:15:32;;;;;;;;;;;;;;;;;;5077665;28;20038;-68
2021/04/14 07:17:58;;;;;;;;;;;;;;;;;;5062752;28;19985;-68
2021/04/14 07:20:25;;;;;;;;;;;;;;;;;;5073549;28;20031;-68
2021/04/14 07:22:58;;;;;;;;;;;;;;;;;;5074180;28;19932;-68
2021/04/14 07:25:24;;;;;;;;;;;;;;;;;;5074519;28;19938;-69
2021/04/14 07:27:51;;;;;;;;;;;;;;;;;;5057093;28;20459;-68
2021/04/14 07:30:17;;;;;;;;;;;;;;;;;;5071309;28;20402;-68
2021/04/14 07:32:44;;;;;;;;;;;;;;;;;;5068805;28;19931;-68
2021/04/14 07:35:11;;;;;;;;;;;;;;;;;;5077196;28;20011;-66
2021/04/14 07:37:37;;;;;;;;;;;;;;;;;;5074125;28;19928;-66
2021/04/14 07:40:05;;;;;;;;;;;;;;;;;;5077245;28;19971;-67
2021/04/14 07:42:33;;;;;;;;;;;;;;;;;;5066992;28;19931;-66
2021/04/14 07:45:00;;;;;;;;;;;;;;;;;;5069723;28;19963;-68
2021/04/14 07:47:26;;;;;;;;;;;;;;;;;;5071725;28;20338;-67
2021/04/14 07:49:53;;;;;;;;;;;;;;;;;;5063992;28;20299;-67
2021/04/14 07:52:19;;;;;;;;;;;;;;;;;;5060467;28;19931;-67
2021/04/14 07:54:51;;;;;;;;;;;;;;;;;;5068925;28;19932;-67
2021/04/14 07:57:18;;;;;;;;;;;;;;;;;;5062352;28;19936;-67
2021/04/14 07:59:44;;;;;;;;;;;;;;;;;;5064762;28;19974;-67
2021/04/14 08:02:11;;;;;;;;;;;;;;;;;;5059055;28;19956;-67
2021/04/14 08:04:37;;;;;;;;;;;;;;;;;;5062336;28;20348;-66
2021/04/14 08:07:04;;;;;;;;;;;;;;;;;;5068274;28;20419;-67
2021/04/14 08:09:30;;;;;;;;;;;;;;;;;;5075990;28;20027;-67
2021/04/14 08:11:57;;;;;;;;;;;;;;;;;;5072015;28;20018;-67
2021/04/14 08:14:27;;;;;;;;;;;;;;;;;;5067816;28;19928;-67
2021/04/14 08:16:54;;;;;;;;;;;;;;;;;;5057214;28;19925;-67
2021/04/14 08:19:20;;;;;;;;;;;;;;;;;;5063285;28;19928;-67
2021/04/14 08:21:47;;;;;;;;;;;;;;;;;;5075465;28;20372;-66
2021/04/14 08:24:13;;;;;;;;;;;;;;;;;;5078145;28;20376;-67
2021/04/14 08:26:40;;;;;;;;;;;;;;;;;;5066229;28;19932;-68
2021/04/14 08:29:06;;;;;;;;;;;;;;;;;;5062036;28;19964;-67
2021/04/14 08:31:45;;;;;;;;;;;;;;;;;;5067603;28;19925;-67
2021/04/14 08:34:11;;;;;;;;;;;;;;;;;;5058186;28;19925;-67
2021/04/14 08:36:38;;;;;;;;;;;;;;;;;;5066779;28;20039;-67
2021/04/14 08:39:04;;;;;;;;;;;;;;;;;;5062100;28;20350;-67
2021/04/14 08:41:31;;;;;;;;;;;;;;;;;;5061634;28;20011;-66
2021/04/14 08:43:57;;;;;;;;;;;;;;;;;;5067506;28;19946;-67
2021/04/14 08:46:24;;;;;;;;;;;;;;;;;;5072528;28;19928;-66
2021/04/14 08:48:50;;;;;;;;;;;;;;;;;;5064056;28;20418;-67
2021/04/14 08:51:17;;;;;;;;;;;;;;;;;;5064614;28;19925;-68
2021/04/14 08:53:43;;;;;;;;;;;;;;;;;;5056833;28;20307;-67
2021/04/14 08:56:10;;;;;;;;;;;;;;;;;;5069623;28;19931;-68
2021/04/14 08:58:36;;;;;;;;;;;;;;;;;;5068410;28;20019;-67
2021/04/14 09:01:03;;;;;;;;;;;;;;;;;;5057891;28;20307;-68
2021/04/14 09:03:29;;;;;;;;;;;;;;;;;;5062750;28;20571;-67
2021/04/14 09:05:56;;;;;;;;;;;;;;;;;;5064355;28;19931;-67
2021/04/14 09:08:22;;;;;;;;;;;;;;;;;;5063512;28;20043;-67
2021/04/14 09:10:53;;;;;;;;;;;;;;;;;;5071439;28;19964;-68
2021/04/14 09:13:19;;;;;;;;;;;;;;;;;;5057987;28;19924;-68
2021/04/14 09:15:46;;;;;;;;;;;;;;;;;;5067389;28;19931;-67
2021/04/14 09:18:13;;;;;;;;;;;;;;;;;;5066526;28;20326;-67
2021/04/14 09:20:40;;;;;;;;;;;;;;;;;;5063175;28;19931;-68
2021/04/14 09:23:07;;;;;;;;;;;;;;;;;;5069059;28;19932;-67
2021/04/14 09:25:33;;;;;;;;;;;;;;;;;;5075371;28;20025;-67
2021/04/14 09:28:00;;;;;;;;;;;;;;;;;;5071237;28;20300;-67
2021/04/14 09:30:26;;;;;;;;;;;;;;;;;;5079383;28;20031;-67
2021/04/14 09:32:53;;;;;;;;;;;;;;;;;;5062228;28;19964;-67
2021/04/14 09:35:19;;;;;;;;;;;;;;;;;;5074776;28;19924;-67
2021/04/14 09:37:45;;;;;;;;;;;;;;;;;;5061513;28;20023;-67
2021/04/14 09:40:12;;;;;;;;;;;;;;;;;;5063748;28;19924;-67
2021/04/14 09:42:38;;;;;;;;;;;;;;;;;;5061484;28;19927;-68
2021/04/14 09:45:05;;;;;;;;;;;;;;;;;;5079950;28;20022;-68
2021/04/14 09:47:33;;;;;;;;;;;;;;;;;;5064769;28;19947;-68
2021/04/14 09:49:59;;;;;;;;;;;;;;;;;;5067064;28;19924;-68
2021/04/14 09:52:26;;;;;;;;;;;;;;;;;;5070593;28;19925;-68
2021/04/14 09:54:52;;;;;;;;;;;;;;;;;;5070828;28;20316;-68
2021/04/14 09:57:19;;;;;;;;;;;;;;;;;;5061718;28;19924;-68
2021/04/14 09:59:45;;;;;;;;;;;;;;;;;;5060085;28;19982;-68
2021/04/14 10:02:13;;;;;;;;;;;;;;;;;;5066599;28;20007;-68
2021/04/14 10:04:39;;;;;;;;;;;;;;;;;;5065945;28;19970;-67
2021/04/14 10:07:06;;;;;;;;;;;;;;;;;;5078198;28;19995;-68
2021/04/14 10:09:32;;;;;;;;;;;;;;;;;;5065660;28;19924;-68
2021/04/14 10:11:59;;;;;;;;;;;;;;;;;;5072359;28;19993;-68
2021/04/14 10:14:26;;;;;;;;;;;;;;;;;;5067164;28;19925;-67
2021/04/14 10:16:53;;;;;;;;;;;;;;;;;;5063287;28;20075;-67
2021/04/14 10:19:19;;;;;;;;;;;;;;;;;;5068529;28;19924;-68
2021/04/14 10:21:46;;;;;;;;;;;;;;;;;;5077378;28;19933;-67
2021/04/14 10:24:12;;;;;;;;;;;;;;;;;;5065722;28;20336;-67
2021/04/14 10:26:39;;;;;;;;;;;;;;;;;;5065380;28;20416;-67
2021/04/14 10:29:05;;;;;;;;;;;;;;;;;;5068794;28;21668;-67
2021/04/14 10:31:32;;;;;;;;;;;;;;;;;;5072789;28;19936;-68
2021/04/14 10:33:59;;;;;;;;;;;;;;;;;;5072447;28;19962;-68
2021/04/14 10:36:25;;;;;;;;;;;;;;;;;;5070309;28;19928;-68
2021/04/14 10:38:53;;;;;;;;;;;;;;;;;;5071964;28;19930;-68
2021/04/14 10:41:22;;;;;;;;;;;;;;;;;;5067713;28;20452;-68
2021/04/14 10:43:50;;;;;;;;;;;;;;;;;;5079786;28;19928;-67
2021/04/14 10:46:17;;;;;;;;;;;;;;;;;;5066352;28;20325;-68
2021/04/14 10:48:43;;;;;;;;;;;;;;;;;;5063922;28;20219;-66
2021/04/14 10:51:10;;;;;;;;;;;;;;;;;;5067287;28;20012;-67
2021/04/14 10:53:36;;;;;;;;;;;;;;;;;;5074453;28;20038;-67
2021/04/14 10:56:03;;;;;;;;;;;;;;;;;;5067999;28;19932;-67
2021/04/14 10:58:29;;;;;;;;;;;;;;;;;;5063699;28;20134;-67
2021/04/14 11:00:56;;;;;;;;;;;;;;;;;;5062306;28;19938;-66
2021/04/14 11:03:22;;;;;;;;;;;;;;;;;;5071626;28;20449;-67
2021/04/14 11:05:49;;;;;;;;;;;;;;;;;;5066368;28;19925;-67
2021/04/14 11:08:15;;;;;;;;;;;;;;;;;;5057346;28;20008;-67
2021/04/14 11:10:42;;;;;;;;;;;;;;;;;;5065527;28;20281;-67
2021/04/14 11:13:08;;;;;;;;;;;;;;;;;;5064255;28;20327;-67
2021/04/14 11:15:35;;;;;;;;;;;;;;;;;;5070199;28;20378;-67
2021/04/14 11:18:01;;;;;;;;;;;;;;;;;;5064286;28;19925;-67
2021/04/14 11:20:28;;;;;;;;;;;;;;;;;;5065450;28;20006;-67
2021/04/14 11:22:54;;;;;;;;;;;;;;;;;;5064356;28;20348;-67
2021/04/14 11:25:21;;;;;;;;;;;;;;;;;;5061253;28;19932;-67
2021/04/14 11:27:47;;;;;;;;;;;;;;;;;;5057352;28;19932;-67
2021/04/14 11:30:14;;;;;;;;;;;;;;;;;;5076361;28;19924;-65
2021/04/14 11:32:40;;;;;;;;;;;;;;;;;;5059353;28;20277;-68
2021/04/14 11:35:07;;;;;;;;;;;;;;;;;;5065697;28;19932;-67
2021/04/14 11:37:33;;;;;;;;;;;;;;;;;;5060387;28;19928;-66
2021/04/14 11:40:00;;;;;;;;;;;;;;;;;;5065822;28;19936;-67
2021/04/14 11:42:26;;;;;;;;;;;;;;;;;;5064877;28;20027;-67
2021/04/14 11:44:53;;;;;;;;;;;;;;;;;;5063650;28;19947;-67
2021/04/14 11:47:20;;;;;;;;;;;;;;;;;;5064647;28;20287;-67
2021/04/14 11:49:46;;;;;;;;;;;;;;;;;;5064696;28;19928;-68
2021/04/14 11:52:13;;;;;;;;;;;;;;;;;;5061288;28;19929;-67
2021/04/14 11:54:39;;;;;;;;;;;;;;;;;;5057893;28;20355;-67
2021/04/14 11:57:06;;;;;;;;;;;;;;;;;;5063850;28;20385;-67
2021/04/14 11:59:32;;;;;;;;;;;;;;;;;;5067110;28;20303;-67
2021/04/14 12:01:58;;;;;;;;;;;;;;;;;;5066895;28;19940;-67
2021/04/14 12:04:25;;;;;;;;;;;;;;;;;;5065737;28;20023;-67
2021/04/14 12:06:51;;;;;;;;;;;;;;;;;;5064305;28;19924;-67
2021/04/14 12:09:18;;;;;;;;;;;;;;;;;;5062397;28;19968;-66
2021/04/14 12:11:44;;;;;;;;;;;;;;;;;;5060040;28;20299;-64
2021/04/14 12:14:11;;;;;;;;;;;;;;;;;;5061910;28;20003;-64
2021/04/14 12:16:38;;;;;;;;;;;;;;;;;;5057726;28;20010;-65
2021/04/14 12:19:04;;;;;;;;;;;;;;;;;;5061514;28;19947;-64
2021/04/14 12:21:31;;;;;;;;;;;;;;;;;;5064117;28;19928;-64
2021/04/14 12:24:00;;;;;;;;;;;;;;;;;;5065390;28;20277;-65
2021/04/14 12:26:26;;;;;;;;;;;;;;;;;;5058817;28;20423;-65
2021/04/14 12:28:53;;;;;;;;;;;;;;;;;;5060464;28;20042;-66
2021/04/14 12:31:19;;;;;;;;;;;;;;;;;;5060663;28;19936;-65
2021/04/14 12:33:46;;;;;;;;;;;;;;;;;;5059275;28;19999;-64
2021/04/14 12:36:12;;;;;;;;;;;;;;;;;;5060388;28;19932;-64
2021/04/14 12:38:39;;;;;;;;;;;;;;;;;;5056433;28;19925;-64
2021/04/14 12:41:05;;;;;;;;;;;;;;;;;;5059070;28;19925;-65
2021/04/14 12:43:32;;;;;;;;;;;;;;;;;;5055793;28;20023;-63
2021/04/14 12:45:58;;;;;;;;;;;;;;;;;;5055858;28;19971;-65
2021/04/14 12:48:25;;;;;;;;;;;;;;;;;;5058572;28;19978;-65
2021/04/14 12:50:51;;;;;;;;;;;;;;;;;;5057212;28;20559;-66
2021/04/14 12:53:18;;;;;;;;;;;;;;;;;;5065090;28;19951;-66
2021/04/14 12:55:44;;;;;;;;;;;;;;;;;;5066212;28;19930;-67
2021/04/14 12:58:11;;;;;;;;;;;;;;;;;;5059174;28;20349;-67
2021/04/14 13:00:37;;;;;;;;;;;;;;;;;;5061182;28;19928;-67
2021/04/14 13:03:04;;;;;;;;;;;;;;;;;;5061236;28;20011;-67
2021/04/14 13:05:30;;;;;;;;;;;;;;;;;;5062275;28;20016;-67
2021/04/14 13:07:57;;;;;;;;;;;;;;;;;;5060687;28;19932;-68
2021/04/14 13:10:23;;;;;;;;;;;;;;;;;;5060559;28;20319;-67
2021/04/14 13:12:50;;;;;;;;;;;;;;;;;;5063575;28;20711;-67
2021/04/14 13:15:16;;;;;;;;;;;;;;;;;;5063571;28;20327;-68
2021/04/14 13:17:43;;;;;;;;;;;;;;;;;;5059697;28;19967;-66
2021/04/14 13:20:09;;;;;;;;;;;;;;;;;;5062609;28;19936;-66
2021/04/14 13:22:35;;;;;;;;;;;;;;;;;;5060986;28;20404;-66
2021/04/14 13:25:02;;;;;;;;;;;;;;;;;;5064080;28;20121;-67
2021/04/14 13:27:29;;;;;;;;;;;;;;;;;;5066734;28;19925;-66
2021/04/14 13:29:55;;;;;;;;;;;;;;;;;;5058017;28;20054;-66
2021/04/14 13:32:22;;;;;;;;;;;;;;;;;;5060098;28;19968;-67
2021/04/14 13:34:48;;;;;;;;;;;;;;;;;;5068821;28;20007;-66
2021/04/14 13:37:14;;;;;;;;;;;;;;;;;;5062071;28;20352;-66
2021/04/14 13:39:41;;;;;;;;;;;;;;;;;;5058071;28;19936;-68
2021/04/14 13:42:07;;;;;;;;;;;;;;;;;;5065142;28;19990;-68
2021/04/14 13:44:34;;;;;;;;;;;;;;;;;;5057472;28;19924;-68
2021/04/14 13:47:00;;;;;;;;;;;;;;;;;;5065951;28;19929;-67
2021/04/14 13:49:27;;;;;;;;;;;;;;;;;;5067225;28;19932;-67
2021/04/14 13:51:53;;;;;;;;;;;;;;;;;;5069070;28;20015;-67
2021/04/14 13:54:20;;;;;;;;;;;;;;;;;;5060192;28;20031;-67
2021/04/14 13:56:46;;;;;;;;;;;;;;;;;;5067804;28;20201;-67
2021/04/14 13:59:13;;;;;;;;;;;;;;;;;;5061389;28;20389;-67
2021/04/14 14:01:40;;;;;;;;;;;;;;;;;;5061098;28;19932;-67
2021/04/14 14:04:07;;;;;;;;;;;;;;;;;;5064629;28;20445;-67
2021/04/14 14:06:33;;;;;;;;;;;;;;;;;;5063396;28;19964;-67
2021/04/14 14:09:00;;;;;;;;;;;;;;;;;;5067335;28;20011;-67
2021/04/14 14:11:26;;;;;;;;;;;;;;;;;;5063158;28;19928;-67
2021/04/14 14:13:52;;;;;;;;;;;;;;;;;;5064231;28;20415;-67
2021/04/14 14:16:19;;;;;;;;;;;;;;;;;;5064957;28;19974;-67
2021/04/14 14:18:45;;;;;;;;;;;;;;;;;;5068181;28;20364;-67
2021/04/14 14:21:12;;;;;;;;;;;;;;;;;;5070624;28;19924;-67
2021/04/14 14:23:39;;;;;;;;;;;;;;;;;;5072754;28;20014;-67
2021/04/14 14:26:05;;;;;;;;;;;;;;;;;;5064852;28;20010;-67
2021/04/14 14:28:31;;;;;;;;;;;;;;;;;;5070305;28;19925;-66
2021/04/14 14:30:58;;;;;;;;;;;;;;;;;;5066586;28;20023;-68
2021/04/14 14:33:25;;;;;;;;;;;;;;;;;;5067911;28;19931;-66
2021/04/14 14:35:51;;;;;;;;;;;;;;;;;;5061431;28;20436;-65
2021/04/14 14:38:17;;;;;;;;;;;;;;;;;;5063415;28;19978;-66
2021/04/14 14:40:44;;;;;;;;;;;;;;;;;;5070912;28;19925;-66
2021/04/14 14:43:13;;;;;;;;;;;;;;;;;;5071334;28;20349;-66
2021/04/14 14:45:39;;;;;;;;;;;;;;;;;;5064158;28;19952;-65
2021/04/14 14:48:06;;;;;;;;;;;;;;;;;;5062341;28;19925;-68
2021/04/14 14:50:32;;;;;;;;;;;;;;;;;;5064067;28;19971;-68
2021/04/14 14:52:59;;;;;;;;;;;;;;;;;;5074708;28;19931;-67
2021/04/14 14:55:25;;;;;;;;;;;;;;;;;;5065161;28;20296;-68
2021/04/14 14:57:52;;;;;;;;;;;;;;;;;;5062707;28;19929;-67
2021/04/14 15:00:18;;;;;;;;;;;;;;;;;;5073037;28;19974;-67
2021/04/14 15:02:45;;;;;;;;;;;;;;;;;;5063445;28;19974;-66
2021/04/14 15:05:12;;;;;;;;;;;;;;;;;;5070590;28;19988;-66
2021/04/14 15:07:39;;;;;;;;;;;;;;;;;;5064676;28;19928;-67
2021/04/14 15:10:05;;;;;;;;;;;;;;;;;;5066965;28;20392;-66
2021/04/14 15:12:31;;;;;;;;;;;;;;;;;;5064274;28;19924;-67
2021/04/14 15:14:58;;;;;;;;;;;;;;;;;;5073728;28;20007;-67
2021/04/14 15:17:24;;;;;;;;;;;;;;;;;;5062689;28;19971;-67
2021/04/14 15:19:51;;;;;;;;;;;;;;;;;;5063275;28;19931;-67
2021/04/14 15:22:21;;;;;;;;;;;;;;;;;;5065372;28;19976;-66
2021/04/14 15:24:48;;;;;;;;;;;;;;;;;;5060447;28;20300;-67
2021/04/14 15:27:14;;;;;;;;;;;;;;;;;;5058484;28;20023;-67
2021/04/14 15:29:41;;;;;;;;;;;;;;;;;;5071390;28;19971;-67
2021/04/14 15:32:08;;;;;;;;;;;;;;;;;;5061870;28;20269;-66
2021/04/14 15:34:36;;;;;;;;;;;;;;;;;;5065179;28;20308;-66
2021/04/14 15:37:02;;;;;;;;;;;;;;;;;;5067805;28;19925;-66
2021/04/14 15:39:29;;;;;;;;;;;;;;;;;;5067481;28;20346;-66
2021/04/14 15:41:55;;;;;;;;;;;;;;;;;;5067583;28;19950;-66
2021/04/14 15:44:22;;;;;;;;;;;;;;;;;;5069234;28;20039;-66
2021/04/14 15:46:48;;;;;;;;;;;;;;;;;;5064730;28;19933;-65
2021/04/14 15:49:15;;;;;;;;;;;;;;;;;;5066475;28;19932;-66
2021/04/14 15:51:41;;;;;;;;;;;;;;;;;;5063097;28;19963;-66
2021/04/14 15:54:08;;;;;;;;;;;;;;;;;;5071745;28;19931;-67
2021/04/14 15:56:34;;;;;;;;;;;;;;;;;;5072864;28;19924;-68
2021/04/14 15:59:01;;;;;;;;;;;;;;;;;;5072042;28;19946;-68
2021/04/14 16:01:30;;;;;;;;;;;;;;;;;;5063443;28;19925;-67
2021/04/14 16:03:57;;;;;;;;;;;;;;;;;;5065064;28;19932;-67
2021/04/14 16:06:26;;;;;;;;;;;;;;;;;;5067322;28;19935;-67
2021/04/14 16:08:52;;;;;;;;;;;;;;;;;;5069627;28;19970;-67
2021/04/14 16:11:19;;;;;;;;;;;;;;;;;;5066301;28;19935;-67
2021/04/14 16:13:45;;;;;;;;;;;;;;;;;;5076978;22;19916;-64
2021/04/14 16:16:12;;;;;;;;;;;;;;;;;;5048198;28;20068;-66
2021/04/14 16:18:38;;;;;;;;;;;;;;;;;;5055035;28;19964;-66
2021/04/14 16:21:05;;;;;;;;;;;;;;;;;;5051691;28;19932;-65
2021/04/14 16:23:31;;;;;;;;;;;;;;;;;;5049353;28;19928;-65
2021/04/14 16:25:58;;;;;;;;;;;;;;;;;;5051829;28;20034;-66
2021/04/14 16:28:24;;;;;;;;;;;;;;;;;;5046090;28;19925;-65
2021/04/14 16:30:51;;;;;;;;;;;;;;;;;;5045616;28;20324;-66
2021/04/14 16:33:17;;;;;;;;;;;;;;;;;;5041245;28;19925;-66
2021/04/14 16:35:44;;;;;;;;;;;;;;;;;;5043202;28;20011;-65
2021/04/14 16:38:10;;;;;;;;;;;;;;;;;;5044478;28;20284;-67
2021/04/14 16:40:37;;;;;;;;;;;;;;;;;;5047468;28;20019;-66
2021/04/14 16:43:04;;;;;;;;;;;;;;;;;;5039751;28;19987;-66